sensor_id;sensor_type;location;lat;lon;timestamp;P1;durP1;ratioP1;P2;durP2;ratioP2
19312;SDS011;9791;50.820;4.406;2022-10-15T00:01:06;21.92;;;16.80;;
19312;SDS011;9791;50.820;4.406;2022-10-15T00:03:34;23.35;;;17.88;;
19312;SDS011;9791;50.820;4.406;2022-10-15T00:06:02;23.33;;;17.85;;
19312;SDS011;9791;50.820;4.406;2022-10-15T00:08:28;21.10;;;16.25;;
19312;SDS011;9791;50.820;4.406;2022-10-15T00:10:54;18.45;;;15.68;;
19312;SDS011;9791;50.820;4.406;2022-10-15T00:13:20;19.48;;;15.68;;
19312;SDS011;9791;50.820;4.406;2022-10-15T00:15:46;19.52;;;16.13;;
19312;SDS011;9791;50.820;4.406;2022-10-15T00:18:12;21.08;;;16.15;;
19312;SDS011;9791;50.820;4.406;2022-10-15T00:20:40;18.95;;;15.57;;
19312;SDS011;9791;50.820;4.406;2022-10-15T00:23:06;21.38;;;16.42;;
19312;SDS011;9791;50.820;4.406;2022-10-15T00:25:32;20.70;;;15.93;;
19312;SDS011;9791;50.820;4.406;2022-10-15T00:28:00;20.05;;;15.00;;
19312;SDS011;9791;50.820;4.406;2022-10-15T00:30:26;22.42;;;15.00;;
19312;SDS011;9791;50.820;4.406;2022-10-15T00:32:52;19.10;;;14.93;;
19312;SDS011;9791;50.820;4.406;2022-10-15T00:35:18;19.23;;;14.85;;
19312;SDS011;9791;50.820;4.406;2022-10-15T00:37:43;20.33;;;15.07;;
19312;SDS011;9791;50.820;4.406;2022-10-15T00:40:11;19.88;;;14.65;;
19312;SDS011;9791;50.820;4.406;2022-10-15T00:42:39;19.52;;;14.75;;
19312;SDS011;9791;50.820;4.406;2022-10-15T00:45:07;18.08;;;14.98;;
19312;SDS011;9791;50.820;4.406;2022-10-15T00:47:36;19.00;;;14.52;;
19312;SDS011;9791;50.820;4.406;2022-10-15T00:52:38;16.67;;;13.35;;
19312;SDS011;9791;50.820;4.406;2022-10-15T00:55:09;20.60;;;15.65;;
19312;SDS011;9791;50.820;4.406;2022-10-15T00:57:36;17.17;;;14.73;;
19312;SDS011;9791;50.820;4.406;2022-10-15T01:00:07;18.83;;;16.35;;
19312;SDS011;9791;50.820;4.406;2022-10-15T01:02:33;17.25;;;14.00;;
19312;SDS011;9791;50.820;4.406;2022-10-15T01:04:59;17.83;;;14.07;;
19312;SDS011;9791;50.820;4.406;2022-10-15T01:07:25;17.65;;;15.13;;
19312;SDS011;9791;50.820;4.406;2022-10-15T01:09:51;17.17;;;13.55;;
19312;SDS011;9791;50.820;4.406;2022-10-15T01:17:37;19.48;;;13.82;;
19312;SDS011;9791;50.820;4.406;2022-10-15T01:27:53;18.02;;;15.23;;
19312;SDS011;9791;50.820;4.406;2022-10-15T01:30:23;15.90;;;13.50;;
19312;SDS011;9791;50.820;4.406;2022-10-15T01:32:55;19.17;;;14.98;;
19312;SDS011;9791;50.820;4.406;2022-10-15T01:37:58;21.50;;;14.75;;
19312;SDS011;9791;50.820;4.406;2022-10-15T01:40:32;22.48;;;15.45;;
19312;SDS011;9791;50.820;4.406;2022-10-15T01:42:59;18.73;;;15.05;;
19312;SDS011;9791;50.820;4.406;2022-10-15T01:45:31;18.77;;;15.52;;
19312;SDS011;9791;50.820;4.406;2022-10-15T01:47:59;18.98;;;16.05;;
19312;SDS011;9791;50.820;4.406;2022-10-15T01:50:27;18.33;;;14.60;;
19312;SDS011;9791;50.820;4.406;2022-10-15T01:52:55;18.55;;;15.35;;
19312;SDS011;9791;50.820;4.406;2022-10-15T01:55:22;19.35;;;14.10;;
19312;SDS011;9791;50.820;4.406;2022-10-15T01:57:48;20.45;;;16.05;;
19312;SDS011;9791;50.820;4.406;2022-10-15T02:00:15;21.42;;;16.00;;
19312;SDS011;9791;50.820;4.406;2022-10-15T02:02:41;19.20;;;15.20;;
19312;SDS011;9791;50.820;4.406;2022-10-15T02:05:30;20.38;;;15.73;;
19312;SDS011;9791;50.820;4.406;2022-10-15T02:10:42;24.90;;;17.20;;
19312;SDS011;9791;50.820;4.406;2022-10-15T02:13:13;22.08;;;16.27;;
19312;SDS011;9791;50.820;4.406;2022-10-15T02:18:30;22.30;;;16.55;;
19312;SDS011;9791;50.820;4.406;2022-10-15T02:21:02;24.63;;;17.45;;
19312;SDS011;9791;50.820;4.406;2022-10-15T02:23:32;24.80;;;17.60;;
19312;SDS011;9791;50.820;4.406;2022-10-15T02:26:03;22.80;;;16.52;;
19312;SDS011;9791;50.820;4.406;2022-10-15T02:28:30;21.88;;;16.98;;
19312;SDS011;9791;50.820;4.406;2022-10-15T02:30:58;25.52;;;17.98;;
19312;SDS011;9791;50.820;4.406;2022-10-15T02:33:25;24.27;;;17.13;;
19312;SDS011;9791;50.820;4.406;2022-10-15T02:35:52;22.23;;;16.77;;
19312;SDS011;9791;50.820;4.406;2022-10-15T02:38:19;21.85;;;17.60;;
19312;SDS011;9791;50.820;4.406;2022-10-15T02:40:47;21.85;;;16.85;;
19312;SDS011;9791;50.820;4.406;2022-10-15T02:43:14;21.95;;;16.70;;
19312;SDS011;9791;50.820;4.406;2022-10-15T02:45:40;19.50;;;16.08;;
19312;SDS011;9791;50.820;4.406;2022-10-15T02:48:06;19.67;;;16.08;;
19312;SDS011;9791;50.820;4.406;2022-10-15T02:50:32;23.58;;;15.48;;
19312;SDS011;9791;50.820;4.406;2022-10-15T02:52:58;22.10;;;17.08;;
19312;SDS011;9791;50.820;4.406;2022-10-15T02:55:24;19.77;;;15.32;;
19312;SDS011;9791;50.820;4.406;2022-10-15T02:57:50;20.48;;;15.77;;
19312;SDS011;9791;50.820;4.406;2022-10-15T03:00:16;20.05;;;16.15;;
19312;SDS011;9791;50.820;4.406;2022-10-15T03:02:43;23.67;;;16.23;;
19312;SDS011;9791;50.820;4.406;2022-10-15T03:05:09;20.80;;;16.60;;
19312;SDS011;9791;50.820;4.406;2022-10-15T03:07:35;20.38;;;15.50;;
19312;SDS011;9791;50.820;4.406;2022-10-15T03:10:02;21.40;;;16.25;;
19312;SDS011;9791;50.820;4.406;2022-10-15T03:12:28;19.42;;;14.68;;
19312;SDS011;9791;50.820;4.406;2022-10-15T03:14:54;20.45;;;16.05;;
19312;SDS011;9791;50.820;4.406;2022-10-15T03:17:20;21.85;;;16.85;;
19312;SDS011;9791;50.820;4.406;2022-10-15T03:19:46;22.58;;;15.25;;
19312;SDS011;9791;50.820;4.406;2022-10-15T03:22:12;21.80;;;15.60;;
19312;SDS011;9791;50.820;4.406;2022-10-15T03:24:38;20.73;;;14.95;;
19312;SDS011;9791;50.820;4.406;2022-10-15T03:27:04;22.33;;;16.40;;
19312;SDS011;9791;50.820;4.406;2022-10-15T03:29:30;20.85;;;16.25;;
19312;SDS011;9791;50.820;4.406;2022-10-15T03:31:56;19.73;;;15.75;;
19312;SDS011;9791;50.820;4.406;2022-10-15T03:34:22;20.13;;;16.45;;
19312;SDS011;9791;50.820;4.406;2022-10-15T03:36:48;22.75;;;16.27;;
19312;SDS011;9791;50.820;4.406;2022-10-15T03:39:14;22.63;;;17.58;;
19312;SDS011;9791;50.820;4.406;2022-10-15T03:41:40;19.98;;;16.35;;
19312;SDS011;9791;50.820;4.406;2022-10-15T03:44:06;19.98;;;16.02;;
19312;SDS011;9791;50.820;4.406;2022-10-15T03:46:33;24.73;;;16.52;;
19312;SDS011;9791;50.820;4.406;2022-10-15T03:48:59;21.45;;;17.35;;
19312;SDS011;9791;50.820;4.406;2022-10-15T03:51:25;21.13;;;16.20;;
19312;SDS011;9791;50.820;4.406;2022-10-15T03:53:51;20.45;;;15.27;;
19312;SDS011;9791;50.820;4.406;2022-10-15T03:56:17;18.42;;;14.73;;
19312;SDS011;9791;50.820;4.406;2022-10-15T03:58:44;19.92;;;15.38;;
19312;SDS011;9791;50.820;4.406;2022-10-15T04:01:11;21.00;;;15.23;;
19312;SDS011;9791;50.820;4.406;2022-10-15T04:03:37;18.90;;;13.85;;
19312;SDS011;9791;50.820;4.406;2022-10-15T04:06:03;16.15;;;12.70;;
19312;SDS011;9791;50.820;4.406;2022-10-15T04:08:29;16.70;;;12.13;;
19312;SDS011;9791;50.820;4.406;2022-10-15T04:10:55;18.95;;;13.02;;
19312;SDS011;9791;50.820;4.406;2022-10-15T04:13:23;15.90;;;12.55;;
19312;SDS011;9791;50.820;4.406;2022-10-15T04:15:49;15.77;;;11.38;;
19312;SDS011;9791;50.820;4.406;2022-10-15T04:18:15;15.50;;;11.80;;
19312;SDS011;9791;50.820;4.406;2022-10-15T04:20:41;14.57;;;10.40;;
19312;SDS011;9791;50.820;4.406;2022-10-15T04:23:07;13.85;;;10.95;;
19312;SDS011;9791;50.820;4.406;2022-10-15T04:25:34;16.67;;;11.65;;
19312;SDS011;9791;50.820;4.406;2022-10-15T04:28:00;16.17;;;11.60;;
19312;SDS011;9791;50.820;4.406;2022-10-15T04:30:27;16.35;;;11.18;;
19312;SDS011;9791;50.820;4.406;2022-10-15T04:32:53;15.52;;;11.05;;
19312;SDS011;9791;50.820;4.406;2022-10-15T04:35:19;15.02;;;10.98;;
19312;SDS011;9791;50.820;4.406;2022-10-15T04:37:45;16.83;;;11.57;;
19312;SDS011;9791;50.820;4.406;2022-10-15T04:40:12;15.70;;;10.48;;
19312;SDS011;9791;50.820;4.406;2022-10-15T04:42:38;15.00;;;11.18;;
19312;SDS011;9791;50.820;4.406;2022-10-15T04:45:05;13.13;;;9.63;;
19312;SDS011;9791;50.820;4.406;2022-10-15T04:47:31;15.82;;;10.23;;
19312;SDS011;9791;50.820;4.406;2022-10-15T04:49:57;15.13;;;10.73;;
19312;SDS011;9791;50.820;4.406;2022-10-15T04:52:23;16.17;;;10.73;;
19312;SDS011;9791;50.820;4.406;2022-10-15T04:54:49;14.35;;;10.32;;
19312;SDS011;9791;50.820;4.406;2022-10-15T04:57:15;14.52;;;9.30;;
19312;SDS011;9791;50.820;4.406;2022-10-15T04:59:41;15.30;;;9.90;;
19312;SDS011;9791;50.820;4.406;2022-10-15T05:02:08;13.48;;;9.45;;
19312;SDS011;9791;50.820;4.406;2022-10-15T05:04:34;13.65;;;9.25;;
19312;SDS011;9791;50.820;4.406;2022-10-15T05:07:00;12.68;;;8.50;;
19312;SDS011;9791;50.820;4.406;2022-10-15T05:09:26;13.15;;;8.95;;
19312;SDS011;9791;50.820;4.406;2022-10-15T05:11:52;14.10;;;8.30;;
19312;SDS011;9791;50.820;4.406;2022-10-15T05:14:19;12.13;;;8.48;;
19312;SDS011;9791;50.820;4.406;2022-10-15T05:16:45;10.90;;;7.90;;
19312;SDS011;9791;50.820;4.406;2022-10-15T05:19:11;11.45;;;7.50;;
19312;SDS011;9791;50.820;4.406;2022-10-15T05:21:37;12.15;;;7.65;;
19312;SDS011;9791;50.820;4.406;2022-10-15T05:24:03;12.02;;;7.88;;
19312;SDS011;9791;50.820;4.406;2022-10-15T05:26:30;11.85;;;6.85;;
19312;SDS011;9791;50.820;4.406;2022-10-15T05:28:56;10.25;;;7.25;;
19312;SDS011;9791;50.820;4.406;2022-10-15T05:31:23;9.98;;;6.85;;
19312;SDS011;9791;50.820;4.406;2022-10-15T05:33:50;9.98;;;6.53;;
19312;SDS011;9791;50.820;4.406;2022-10-15T05:36:21;10.80;;;7.10;;
19312;SDS011;9791;50.820;4.406;2022-10-15T05:38:49;10.60;;;7.22;;
19312;SDS011;9791;50.820;4.406;2022-10-15T05:41:16;12.43;;;7.95;;
19312;SDS011;9791;50.820;4.406;2022-10-15T05:43:42;12.10;;;6.45;;
19312;SDS011;9791;50.820;4.406;2022-10-15T05:46:10;9.73;;;6.63;;
19312;SDS011;9791;50.820;4.406;2022-10-15T05:48:36;10.70;;;7.20;;
19312;SDS011;9791;50.820;4.406;2022-10-15T05:51:03;11.38;;;6.88;;
19312;SDS011;9791;50.820;4.406;2022-10-15T05:53:29;10.68;;;6.40;;
19312;SDS011;9791;50.820;4.406;2022-10-15T05:55:56;9.48;;;6.00;;
19312;SDS011;9791;50.820;4.406;2022-10-15T05:58:25;11.02;;;7.00;;
19312;SDS011;9791;50.820;4.406;2022-10-15T06:00:52;13.20;;;6.70;;
19312;SDS011;9791;50.820;4.406;2022-10-15T06:03:18;10.30;;;6.00;;
19312;SDS011;9791;50.820;4.406;2022-10-15T06:05:44;11.02;;;6.32;;
19312;SDS011;9791;50.820;4.406;2022-10-15T06:08:10;9.63;;;6.00;;
19312;SDS011;9791;50.820;4.406;2022-10-15T06:10:36;11.18;;;6.20;;
19312;SDS011;9791;50.820;4.406;2022-10-15T06:13:03;9.35;;;6.13;;
19312;SDS011;9791;50.820;4.406;2022-10-15T06:15:29;10.52;;;6.38;;
19312;SDS011;9791;50.820;4.406;2022-10-15T06:17:55;9.68;;;5.80;;
19312;SDS011;9791;50.820;4.406;2022-10-15T06:20:21;13.00;;;6.47;;
19312;SDS011;9791;50.820;4.406;2022-10-15T06:22:47;11.35;;;6.13;;
19312;SDS011;9791;50.820;4.406;2022-10-15T06:25:13;10.52;;;6.47;;
19312;SDS011;9791;50.820;4.406;2022-10-15T06:27:39;9.77;;;5.70;;
19312;SDS011;9791;50.820;4.406;2022-10-15T06:30:06;10.63;;;6.43;;
19312;SDS011;9791;50.820;4.406;2022-10-15T06:32:32;8.48;;;5.38;;
19312;SDS011;9791;50.820;4.406;2022-10-15T06:34:59;10.63;;;5.97;;
19312;SDS011;9791;50.820;4.406;2022-10-15T06:37:25;8.85;;;5.65;;
19312;SDS011;9791;50.820;4.406;2022-10-15T06:39:51;10.32;;;6.60;;
19312;SDS011;9791;50.820;4.406;2022-10-15T06:42:17;9.40;;;5.20;;
19312;SDS011;9791;50.820;4.406;2022-10-15T06:44:42;8.73;;;5.25;;
19312;SDS011;9791;50.820;4.406;2022-10-15T06:47:08;8.63;;;5.35;;
19312;SDS011;9791;50.820;4.406;2022-10-15T06:49:34;7.47;;;5.18;;
19312;SDS011;9791;50.820;4.406;2022-10-15T06:52:00;10.23;;;5.90;;
19312;SDS011;9791;50.820;4.406;2022-10-15T06:54:26;8.48;;;5.35;;
19312;SDS011;9791;50.820;4.406;2022-10-15T06:56:52;10.75;;;5.78;;
19312;SDS011;9791;50.820;4.406;2022-10-15T06:59:18;11.10;;;4.93;;
19312;SDS011;9791;50.820;4.406;2022-10-15T07:01:45;8.40;;;5.10;;
19312;SDS011;9791;50.820;4.406;2022-10-15T07:04:11;7.60;;;5.03;;
19312;SDS011;9791;50.820;4.406;2022-10-15T07:06:37;8.30;;;5.13;;
19312;SDS011;9791;50.820;4.406;2022-10-15T07:09:04;8.38;;;5.45;;
19312;SDS011;9791;50.820;4.406;2022-10-15T07:11:30;8.90;;;5.25;;
19312;SDS011;9791;50.820;4.406;2022-10-15T07:13:56;9.60;;;5.13;;
19312;SDS011;9791;50.820;4.406;2022-10-15T07:16:22;7.65;;;5.15;;
19312;SDS011;9791;50.820;4.406;2022-10-15T07:18:48;7.20;;;4.63;;
19312;SDS011;9791;50.820;4.406;2022-10-15T07:21:14;7.03;;;4.50;;
19312;SDS011;9791;50.820;4.406;2022-10-15T07:23:40;7.55;;;4.00;;
19312;SDS011;9791;50.820;4.406;2022-10-15T07:26:06;6.53;;;4.53;;
19312;SDS011;9791;50.820;4.406;2022-10-15T07:28:32;7.25;;;4.15;;
19312;SDS011;9791;50.820;4.406;2022-10-15T07:30:59;7.70;;;4.90;;
19312;SDS011;9791;50.820;4.406;2022-10-15T07:33:26;7.38;;;4.60;;
19312;SDS011;9791;50.820;4.406;2022-10-15T07:35:51;9.50;;;4.15;;
19312;SDS011;9791;50.820;4.406;2022-10-15T07:38:17;6.72;;;4.22;;
19312;SDS011;9791;50.820;4.406;2022-10-15T07:40:56;6.00;;;3.78;;
19312;SDS011;9791;50.820;4.406;2022-10-15T07:43:22;7.65;;;4.35;;
19312;SDS011;9791;50.820;4.406;2022-10-15T07:45:48;8.30;;;4.47;;
19312;SDS011;9791;50.820;4.406;2022-10-15T07:48:14;7.38;;;4.00;;
19312;SDS011;9791;50.820;4.406;2022-10-15T07:50:40;5.95;;;3.65;;
19312;SDS011;9791;50.820;4.406;2022-10-15T07:53:06;6.50;;;3.92;;
19312;SDS011;9791;50.820;4.406;2022-10-15T07:55:32;6.38;;;3.50;;
19312;SDS011;9791;50.820;4.406;2022-10-15T07:57:58;5.53;;;3.28;;
19312;SDS011;9791;50.820;4.406;2022-10-15T08:00:24;5.13;;;3.10;;
19312;SDS011;9791;50.820;4.406;2022-10-15T08:02:51;6.63;;;3.10;;
19312;SDS011;9791;50.820;4.406;2022-10-15T08:05:17;4.63;;;2.70;;
19312;SDS011;9791;50.820;4.406;2022-10-15T08:07:43;4.93;;;2.33;;
19312;SDS011;9791;50.820;4.406;2022-10-15T08:10:09;5.55;;;2.30;;
19312;SDS011;9791;50.820;4.406;2022-10-15T08:12:37;4.88;;;2.53;;
19312;SDS011;9791;50.820;4.406;2022-10-15T08:15:03;4.50;;;2.35;;
19312;SDS011;9791;50.820;4.406;2022-10-15T08:17:29;6.00;;;2.22;;
19312;SDS011;9791;50.820;4.406;2022-10-15T08:19:56;4.25;;;2.13;;
19312;SDS011;9791;50.820;4.406;2022-10-15T08:22:22;4.25;;;2.10;;
19312;SDS011;9791;50.820;4.406;2022-10-15T08:24:48;4.85;;;2.20;;
19312;SDS011;9791;50.820;4.406;2022-10-15T08:27:14;4.05;;;1.90;;
19312;SDS011;9791;50.820;4.406;2022-10-15T08:29:40;3.95;;;1.65;;
19312;SDS011;9791;50.820;4.406;2022-10-15T08:32:06;4.53;;;1.83;;
19312;SDS011;9791;50.820;4.406;2022-10-15T08:34:32;4.63;;;1.88;;
19312;SDS011;9791;50.820;4.406;2022-10-15T08:36:58;3.83;;;1.60;;
19312;SDS011;9791;50.820;4.406;2022-10-15T08:39:24;3.42;;;1.50;;
19312;SDS011;9791;50.820;4.406;2022-10-15T08:41:53;2.70;;;1.30;;
19312;SDS011;9791;50.820;4.406;2022-10-15T08:44:37;4.68;;;1.50;;
19312;SDS011;9791;50.820;4.406;2022-10-15T08:49:49;3.00;;;1.40;;
19312;SDS011;9791;50.820;4.406;2022-10-15T08:52:25;3.22;;;1.05;;
19312;SDS011;9791;50.820;4.406;2022-10-15T08:54:54;3.88;;;1.13;;
19312;SDS011;9791;50.820;4.406;2022-10-15T09:00:00;4.95;;;1.10;;
19312;SDS011;9791;50.820;4.406;2022-10-15T09:02:34;2.08;;;0.98;;
19312;SDS011;9791;50.820;4.406;2022-10-15T09:07:52;2.75;;;1.20;;
19312;SDS011;9791;50.820;4.406;2022-10-15T09:15:36;1.52;;;0.80;;
19312;SDS011;9791;50.820;4.406;2022-10-15T09:18:08;1.88;;;0.90;;
19312;SDS011;9791;50.820;4.406;2022-10-15T09:20:36;3.58;;;0.90;;
19312;SDS011;9791;50.820;4.406;2022-10-15T09:23:02;1.35;;;0.60;;
19312;SDS011;9791;50.820;4.406;2022-10-15T09:25:31;1.45;;;0.68;;
19312;SDS011;9791;50.820;4.406;2022-10-15T09:27:59;1.25;;;0.70;;
19312;SDS011;9791;50.820;4.406;2022-10-15T09:35:42;2.08;;;0.70;;
19312;SDS011;9791;50.820;4.406;2022-10-15T09:43:11;1.65;;;0.80;;
19312;SDS011;9791;50.820;4.406;2022-10-15T09:45:38;2.35;;;0.80;;
19312;SDS011;9791;50.820;4.406;2022-10-15T09:48:11;1.35;;;0.70;;
19312;SDS011;9791;50.820;4.406;2022-10-15T09:50:39;2.67;;;0.77;;
19312;SDS011;9791;50.820;4.406;2022-10-15T09:55:42;1.20;;;0.70;;
19312;SDS011;9791;50.820;4.406;2022-10-15T09:58:14;2.17;;;0.82;;
19312;SDS011;9791;50.820;4.406;2022-10-15T10:00:58;2.03;;;0.70;;
19312;SDS011;9791;50.820;4.406;2022-10-15T10:03:26;1.67;;;0.70;;
19312;SDS011;9791;50.820;4.406;2022-10-15T10:05:59;2.45;;;0.73;;
19312;SDS011;9791;50.820;4.406;2022-10-15T10:08:26;1.90;;;0.70;;
19312;SDS011;9791;50.820;4.406;2022-10-15T10:10:54;1.65;;;0.80;;
19312;SDS011;9791;50.820;4.406;2022-10-15T10:13:29;2.45;;;0.80;;
19312;SDS011;9791;50.820;4.406;2022-10-15T10:15:55;3.40;;;0.70;;
19312;SDS011;9791;50.820;4.406;2022-10-15T10:18:26;1.30;;;0.68;;
19312;SDS011;9791;50.820;4.406;2022-10-15T10:20:56;1.52;;;0.65;;
19312;SDS011;9791;50.820;4.406;2022-10-15T10:23:35;2.17;;;0.68;;
19312;SDS011;9791;50.820;4.406;2022-10-15T10:26:03;2.47;;;0.90;;
19312;SDS011;9791;50.820;4.406;2022-10-15T10:30:59;1.95;;;0.55;;
19312;SDS011;9791;50.820;4.406;2022-10-15T10:35:53;0.82;;;0.60;;
19312;SDS011;9791;50.820;4.406;2022-10-15T10:38:20;0.80;;;0.52;;
19312;SDS011;9791;50.820;4.406;2022-10-15T10:40:50;1.40;;;0.60;;
19312;SDS011;9791;50.820;4.406;2022-10-15T10:48:26;1.63;;;0.60;;
19312;SDS011;9791;50.820;4.406;2022-10-15T10:51:01;0.80;;;0.60;;
19312;SDS011;9791;50.820;4.406;2022-10-15T10:53:27;2.75;;;0.60;;
19312;SDS011;9791;50.820;4.406;2022-10-15T10:55:53;1.95;;;0.90;;
19312;SDS011;9791;50.820;4.406;2022-10-15T10:58:21;2.05;;;0.80;;
19312;SDS011;9791;50.820;4.406;2022-10-15T11:00:51;1.48;;;0.68;;
19312;SDS011;9791;50.820;4.406;2022-10-15T11:05:43;5.97;;;0.80;;
19312;SDS011;9791;50.820;4.406;2022-10-15T11:11:21;1.25;;;0.63;;
19312;SDS011;9791;50.820;4.406;2022-10-15T11:14:02;2.85;;;1.00;;
19312;SDS011;9791;50.820;4.406;2022-10-15T11:19:08;1.52;;;0.88;;
19312;SDS011;9791;50.820;4.406;2022-10-15T11:24:24;3.63;;;1.00;;
19312;SDS011;9791;50.820;4.406;2022-10-15T11:26:58;2.55;;;0.90;;
19312;SDS011;9791;50.820;4.406;2022-10-15T11:37:36;2.17;;;0.90;;
19312;SDS011;9791;50.820;4.406;2022-10-15T11:42:59;1.63;;;0.90;;
19312;SDS011;9791;50.820;4.406;2022-10-15T11:45:29;2.53;;;0.90;;
19312;SDS011;9791;50.820;4.406;2022-10-15T11:50:39;1.85;;;0.90;;
19312;SDS011;9791;50.820;4.406;2022-10-15T11:58:31;1.58;;;0.68;;
19312;SDS011;9791;50.820;4.406;2022-10-15T12:00:59;2.30;;;1.02;;
19312;SDS011;9791;50.820;4.406;2022-10-15T12:03:27;1.70;;;0.70;;
19312;SDS011;9791;50.820;4.406;2022-10-15T12:05:58;1.88;;;0.80;;
19312;SDS011;9791;50.820;4.406;2022-10-15T12:08:25;1.52;;;0.70;;
19312;SDS011;9791;50.820;4.406;2022-10-15T12:13:58;1.70;;;0.80;;
19312;SDS011;9791;50.820;4.406;2022-10-15T12:19:19;1.63;;;0.80;;
19312;SDS011;9791;50.820;4.406;2022-10-15T12:29:44;4.65;;;0.90;;
19312;SDS011;9791;50.820;4.406;2022-10-15T12:32:23;1.23;;;0.75;;
19312;SDS011;9791;50.820;4.406;2022-10-15T12:34:59;3.15;;;0.85;;
19312;SDS011;9791;50.820;4.406;2022-10-15T12:37:26;3.45;;;0.60;;
19312;SDS011;9791;50.820;4.406;2022-10-15T12:39:56;1.67;;;0.70;;
19312;SDS011;9791;50.820;4.406;2022-10-15T12:42:41;2.75;;;0.80;;
19312;SDS011;9791;50.820;4.406;2022-10-15T12:45:16;1.05;;;0.52;;
19312;SDS011;9791;50.820;4.406;2022-10-15T12:47:48;1.42;;;0.70;;
19312;SDS011;9791;50.820;4.406;2022-10-15T12:50:28;2.88;;;0.82;;
19312;SDS011;9791;50.820;4.406;2022-10-15T12:52:58;2.25;;;0.70;;
19312;SDS011;9791;50.820;4.406;2022-10-15T12:55:36;2.35;;;0.73;;
19312;SDS011;9791;50.820;4.406;2022-10-15T12:58:30;4.70;;;0.77;;
19312;SDS011;9791;50.820;4.406;2022-10-15T13:00:51;2.15;;;0.80;;
19312;SDS011;9791;50.820;4.406;2022-10-15T13:05:43;1.30;;;0.50;;
19312;SDS011;9791;50.820;4.406;2022-10-15T13:08:14;2.25;;;0.80;;
19312;SDS011;9791;50.820;4.406;2022-10-15T13:10:45;2.70;;;0.70;;
19312;SDS011;9791;50.820;4.406;2022-10-15T13:13:14;3.03;;;0.70;;
19312;SDS011;9791;50.820;4.406;2022-10-15T13:15:41;3.58;;;1.00;;
19312;SDS011;9791;50.820;4.406;2022-10-15T13:18:14;1.38;;;0.70;;
19312;SDS011;9791;50.820;4.406;2022-10-15T13:20:44;2.65;;;0.80;;
19312;SDS011;9791;50.820;4.406;2022-10-15T13:23:18;2.17;;;0.80;;
19312;SDS011;9791;50.820;4.406;2022-10-15T13:25:45;3.42;;;0.75;;
19312;SDS011;9791;50.820;4.406;2022-10-15T13:30:52;2.38;;;0.70;;
19312;SDS011;9791;50.820;4.406;2022-10-15T13:33:19;2.60;;;0.85;;
19312;SDS011;9791;50.820;4.406;2022-10-15T13:35:45;1.65;;;0.70;;
19312;SDS011;9791;50.820;4.406;2022-10-15T13:38:19;3.45;;;0.75;;
19312;SDS011;9791;50.820;4.406;2022-10-15T13:40:46;1.65;;;0.60;;
19312;SDS011;9791;50.820;4.406;2022-10-15T13:43:17;4.03;;;1.00;;
19312;SDS011;9791;50.820;4.406;2022-10-15T13:45:47;5.20;;;1.02;;
19312;SDS011;9791;50.820;4.406;2022-10-15T13:48:16;5.30;;;0.85;;
19312;SDS011;9791;50.820;4.406;2022-10-15T13:50:45;7.57;;;1.23;;
19312;SDS011;9791;50.820;4.406;2022-10-15T13:53:22;3.97;;;1.00;;
19312;SDS011;9791;50.820;4.406;2022-10-15T13:55:49;3.03;;;0.95;;
19312;SDS011;9791;50.820;4.406;2022-10-15T13:58:20;2.47;;;0.90;;
19312;SDS011;9791;50.820;4.406;2022-10-15T14:00:50;5.72;;;0.90;;
19312;SDS011;9791;50.820;4.406;2022-10-15T14:03:19;3.63;;;0.95;;
19312;SDS011;9791;50.820;4.406;2022-10-15T14:05:52;5.00;;;1.10;;
19312;SDS011;9791;50.820;4.406;2022-10-15T14:08:22;4.03;;;1.10;;
19312;SDS011;9791;50.820;4.406;2022-10-15T14:10:49;5.07;;;1.00;;
19312;SDS011;9791;50.820;4.406;2022-10-15T14:13:15;2.10;;;0.70;;
19312;SDS011;9791;50.820;4.406;2022-10-15T14:15:42;6.40;;;1.20;;
19312;SDS011;9791;50.820;4.406;2022-10-15T14:18:09;2.25;;;0.80;;
19312;SDS011;9791;50.820;4.406;2022-10-15T14:20:36;3.08;;;0.90;;
19312;SDS011;9791;50.820;4.406;2022-10-15T14:23:02;4.72;;;0.95;;
19312;SDS011;9791;50.820;4.406;2022-10-15T14:25:28;2.97;;;1.25;;
19312;SDS011;9791;50.820;4.406;2022-10-15T14:27:54;6.10;;;0.90;;
19312;SDS011;9791;50.820;4.406;2022-10-15T14:30:28;5.05;;;1.50;;
19312;SDS011;9791;50.820;4.406;2022-10-15T14:32:55;3.28;;;0.90;;
19312;SDS011;9791;50.820;4.406;2022-10-15T14:35:29;6.53;;;1.20;;
19312;SDS011;9791;50.820;4.406;2022-10-15T14:38:03;3.65;;;1.00;;
19312;SDS011;9791;50.820;4.406;2022-10-15T14:40:29;3.17;;;1.00;;
19312;SDS011;9791;50.820;4.406;2022-10-15T14:45:39;2.50;;;0.80;;
19312;SDS011;9791;50.820;4.406;2022-10-15T14:48:18;4.93;;;1.15;;
19312;SDS011;9791;50.820;4.406;2022-10-15T14:50:45;5.15;;;1.17;;
19312;SDS011;9791;50.820;4.406;2022-10-15T14:53:18;3.88;;;1.13;;
19312;SDS011;9791;50.820;4.406;2022-10-15T14:55:58;4.13;;;1.25;;
19312;SDS011;9791;50.820;4.406;2022-10-15T14:58:25;5.82;;;1.30;;
19312;SDS011;9791;50.820;4.406;2022-10-15T15:01:02;3.47;;;1.23;;
19312;SDS011;9791;50.820;4.406;2022-10-15T15:03:30;5.13;;;1.48;;
19312;SDS011;9791;50.820;4.406;2022-10-15T15:05:56;5.35;;;1.20;;
19312;SDS011;9791;50.820;4.406;2022-10-15T15:08:23;5.07;;;1.23;;
19312;SDS011;9791;50.820;4.406;2022-10-15T15:10:49;5.85;;;0.90;;
19312;SDS011;9791;50.820;4.406;2022-10-15T15:13:18;5.40;;;1.15;;
19312;SDS011;9791;50.820;4.406;2022-10-15T15:15:45;4.90;;;0.98;;
19312;SDS011;9791;50.820;4.406;2022-10-15T15:18:11;3.42;;;1.17;;
19312;SDS011;9791;50.820;4.406;2022-10-15T15:20:41;3.22;;;1.00;;
19312;SDS011;9791;50.820;4.406;2022-10-15T15:23:09;2.60;;;0.93;;
19312;SDS011;9791;50.820;4.406;2022-10-15T15:25:37;3.95;;;1.15;;
19312;SDS011;9791;50.820;4.406;2022-10-15T15:28:10;5.38;;;1.88;;
19312;SDS011;9791;50.820;4.406;2022-10-15T15:30:38;2.55;;;0.90;;
19312;SDS011;9791;50.820;4.406;2022-10-15T15:33:04;5.65;;;1.23;;
19312;SDS011;9791;50.820;4.406;2022-10-15T15:37:56;3.90;;;1.20;;
19312;SDS011;9791;50.820;4.406;2022-10-15T15:40:22;3.83;;;1.27;;
19312;SDS011;9791;50.820;4.406;2022-10-15T15:42:48;5.50;;;1.40;;
19312;SDS011;9791;50.820;4.406;2022-10-15T15:45:21;5.13;;;1.50;;
19312;SDS011;9791;50.820;4.406;2022-10-15T15:47:48;4.45;;;1.13;;
19312;SDS011;9791;50.820;4.406;2022-10-15T15:50:14;4.05;;;1.08;;
19312;SDS011;9791;50.820;4.406;2022-10-15T15:52:41;5.75;;;1.63;;
19312;SDS011;9791;50.820;4.406;2022-10-15T15:55:07;6.97;;;1.33;;
19312;SDS011;9791;50.820;4.406;2022-10-15T15:57:33;3.95;;;1.27;;
19312;SDS011;9791;50.820;4.406;2022-10-15T15:59:59;3.80;;;1.23;;
19312;SDS011;9791;50.820;4.406;2022-10-15T16:02:25;5.22;;;1.30;;
19312;SDS011;9791;50.820;4.406;2022-10-15T16:04:52;4.90;;;1.30;;
19312;SDS011;9791;50.820;4.406;2022-10-15T16:07:18;4.95;;;1.23;;
19312;SDS011;9791;50.820;4.406;2022-10-15T16:09:44;5.13;;;1.30;;
19312;SDS011;9791;50.820;4.406;2022-10-15T16:12:10;3.10;;;1.10;;
19312;SDS011;9791;50.820;4.406;2022-10-15T16:14:37;7.20;;;1.40;;
19312;SDS011;9791;50.820;4.406;2022-10-15T16:17:03;10.23;;;1.60;;
19312;SDS011;9791;50.820;4.406;2022-10-15T16:19:29;4.53;;;1.30;;
19312;SDS011;9791;50.820;4.406;2022-10-15T16:21:55;5.22;;;1.38;;
19312;SDS011;9791;50.820;4.406;2022-10-15T16:24:21;8.02;;;1.38;;
19312;SDS011;9791;50.820;4.406;2022-10-15T16:26:47;5.90;;;1.30;;
19312;SDS011;9791;50.820;4.406;2022-10-15T16:29:13;6.40;;;1.33;;
19312;SDS011;9791;50.820;4.406;2022-10-15T16:31:41;4.82;;;1.20;;
19312;SDS011;9791;50.820;4.406;2022-10-15T16:34:07;7.68;;;1.30;;
19312;SDS011;9791;50.820;4.406;2022-10-15T16:36:33;5.32;;;1.27;;
19312;SDS011;9791;50.820;4.406;2022-10-15T16:39:00;3.97;;;1.23;;
19312;SDS011;9791;50.820;4.406;2022-10-15T16:41:26;6.80;;;1.27;;
19312;SDS011;9791;50.820;4.406;2022-10-15T16:43:52;4.45;;;1.30;;
19312;SDS011;9791;50.820;4.406;2022-10-15T16:46:18;4.65;;;1.30;;
19312;SDS011;9791;50.820;4.406;2022-10-15T16:48:44;7.65;;;1.65;;